AirNav   Jet Aviation Boston
 
 541 users online  

D00 Norman County Ada/Twin Valley Airport
Ada/Twin Valley, Minnesota, USA

GOING TO ADA/TWIN VALLEY?


FAA INFORMATION EFFECTIVE 29 MARCH 2018

Location

FAA Identifier: D00
Lat/Long: 47-15-37.6830N / 096-24-00.9500W
47-15.628050N / 096-24.015833W
47.2604675 / -96.4002639
(estimated)
Elevation: 954 ft. / 291 m (estimated)
Variation: 05E (2000)
From city: 5 miles SE of central business district of the associated city
Time zone: UTC -5 (UTC -6 during Standard Time)
Zip code: 56584

Airport Operations

Airport use: Open to the public
Activation date: 09/1978
Control tower: no
ARTCC: MINNEAPOLIS CENTER
FSS: PRINCETON FLIGHT SERVICE STATION
NOTAMs facility: PNM (NOTAM-D service available)
Attendance: UNATNDD
Pattern altitude: 1754 ft. MSL
Wind indicator: lighted
Segmented circle: no
Lights: SS-SR
Beacon: white-green (lighted land airport)
Operates sunset to sunrise.

Airport Communications

CTAF: 122.9
FARGO APPROACH: 120.4
FARGO DEPARTURE: 120.4
WX AWOS-3PT at 3N8 (19 nm E): 121.125 (218-936-2507)

Nearby radio navigation aids

VOR radial/distance  VOR name  Freq  Var
DTLr316/33.5DETROIT LAKES VOR/DME111.2005E
FARr022/35.6FARGO VOR/DME116.2009E

 
NDB name  Hdg/Dist  Freq  Var  ID
FOSSTON229/32.322403EFSE ..-. ... .
CROOKSTON163/35.940003ECKN -.-. -.- -.

Airport Services

Fuel available: 100LL
FUEL AVAIL 24 HOUR WITH CREDIT CARD.
Parking: tiedowns

Runway Information

Runway 15/33

Dimensions: 3103 x 60 ft. / 946 x 18 m
Surface: asphalt, in fair condition
CRACKING AND SURFACE EROSION.
Runway edge lights: low intensity
SEVERAL LIGHTS LEANING.
RUNWAY 15  RUNWAY 33
Latitude: 47-15.857617N47-15.398467N
Longitude: 096-24.179600W096-23.852067W
Elevation: 938.0 ft.954.0 ft.
Gradient: 0.5%0.5%
Traffic pattern: leftleft
Runway heading: 149 magnetic, 154 true329 magnetic, 334 true
Markings: nonprecision, in fair conditionnonprecision, in fair condition
Touchdown point: yes, no lightsyes, no lights

Airport Ownership and Management from official FAA records

Ownership: Publicly-owned
Owner: CNTY NORMAN & ADA-TWIN VALLEY
PO BOX 32
ADA, MN 56510
Phone 218-784-5520
Manager: BRUCE VISSER
P.O. BOX 9
ADA, MN 56510
Phone 218-784-2962
ARPT MGR WORK PHONE 218-784-4381.

Airport Operational Statistics

Aircraft based on the field: 8
Single engine airplanes: 8
    
Aircraft operations: avg 100/week *
58% local general aviation
42% transient general aviation
* for 12-month period ending 30 June 2015

Additional Remarks

A58-33 RWY 33 HAS 5 FT BRUSH 14 FT FROM THE RWY END AND 81 FT R
A58-15 RWY 15 HAS 4 FT BRUSH 36 FT FROM THE RWY END AND 83 FT L
ULTRALIGHTS ON & INVOF ARPT.

Instrument Procedures

NOTE: All procedures below are presented as PDF files. If you need a reader for these files, you should download the free Adobe Reader.

NOT FOR NAVIGATION. Please procure official charts for flight.
FAA instrument procedures published for use from 29 March 2018 at 0901Z to 26 April 2018 at 0900Z.

 
IAPs - Instrument Approach Procedures
RNAV (GPS) RWY 33   download (151KB)
NOTE: Special Take-Off Minimums/Departure Procedures apply   download (156KB)

Other nearby airports with instrument procedures:

3N8 - Mahnomen County Airport (19 nm E)
04Y - Hawley Municipal Airport (23 nm S)
KFAR - Hector International Airport (27 nm SW)
KJKJ - Moorhead Municipal Airport (27 nm SW)
3H4 - Hillsboro Municipal Airport (28 nm W)
 
Loc | Ops | Rwys | IFR | FBO | Links
Com | Nav | Svcs | Stats | Notes

AirNav Hotels Sweepstakes
 
Area around D00 (Norman County Ada/Twin Valley Airport)
 
Road maps at: MapQuest Bing Google
 
Aerial photo
No photo
 
Sectional chart

 
Airport distance calculator
Flying to Norman County Ada/Twin Valley Airport? Find the distance to fly.

From to D00

Sunrise and sunset
Times for 24-Apr-2018
 Local
(UTC-5)
 Zulu
(UTC)
Morning civil twilight05:4910:49
Sunrise06:2211:22
Sunset20:2601:26
Evening civil twilight20:5901:59

Current date and time
Zulu (UTC)  24-Apr-2018 05:13:02
Local (UTC-5)  24-Apr-2018 00:13:02
 
METAR
K3N8 
19nm E 
240455Z AUTO 03005KT 10SM CLR 07/02 A3018 RMK AO2 T00720019
KFAR 
26nm SW 
240453Z 03003KT 10SM OVC100 10/04 A3019 RMK AO2 SLP225 T01000044
KJKJ 
28nm SW 
240455Z AUTO 00000KT 10SM OVC110 09/04 A3020 RMK AO2
KFSE 
32nm NE 
240455Z AUTO 36003KT 10SM CLR 07/01 A3019 RMK AO2
KDTL 
34nm SE 
240455Z AUTO 02004KT 10SM CLR 08/01 A3019 RMK AO2
KCKN 
36nm N 
240455Z AUTO 36009KT 10SM CLR 08/04 A3022 RMK AO2
TAF
KFAR 
26nm SW 
231727Z 2318/2418 35007KT P6SM SCT120 FM240500 36010KT P6SM BKN060 FM241600 36012G18KT P6SM FEW250
NOTAMs
Click for the latest NOTAMs
NOTAMs are issued by the DoD/FAA and will open in a separate window not controlled by AirNav.

 

 
 

FBO, Fuel Providers, and Aircraft Ground Support

  
 Business Name 
 
 Contact 
 
 Services / Description 
 
Fuel Prices
 
Comments
  
Norman County-Ada-Twin Valley Airport 218-415-0191
no information available

If you are affiliated with Norman County-Ada-Twin Valley Airport and would like to show here your services, contact info, web link, logo, and more, click here
100LL
SS $3.85 
 Updated 27-Aug-2017
 
   write
SS=Self service
Update Fuel Prices
 

Would you like to see your business listed on this page?

 If your business provides an interesting product or service to pilots, flight crews, aircraft, or users of the Norman County Ada/Twin Valley Airport, you should consider listing it here.  To start the listing process, click on the button below
 
Add a business
 

Other Pages about Norman County Ada/Twin Valley Airport

PDF page(s) from the Minnesota Airport Directory
 
Update a link
 
Copyright © AirNav, LLC. All rights reserved. Privacy Policy  Contact